createdAt,value
2022-10-24T00:03:07.204Z,984.65
2022-10-24T00:08:11.293Z,984.68
2022-10-24T00:13:15.431Z,984.65
2022-10-24T00:18:19.583Z,984.58
2022-10-24T00:23:23.773Z,984.52
2022-10-24T00:28:27.895Z,984.43
2022-10-24T00:33:32.091Z,984.45
2022-10-24T00:38:36.219Z,984.52
2022-10-24T00:43:40.429Z,984.58
2022-10-24T00:48:44.582Z,984.63
2022-10-24T00:53:48.793Z,984.63
2022-10-24T00:58:52.862Z,984.63
2022-10-24T01:03:57.060Z,984.53
2022-10-24T01:09:01.223Z,984.47
2022-10-24T01:14:05.372Z,984.55
2022-10-24T01:19:09.549Z,984.46
2022-10-24T01:24:13.688Z,984.44
2022-10-24T01:29:17.853Z,984.35
2022-10-24T01:34:21.999Z,984.41
2022-10-24T01:39:26.145Z,984.38
2022-10-24T01:44:28.482Z,984.25
2022-10-24T01:49:32.588Z,984.25
2022-10-24T01:54:34.846Z,984.10
2022-10-24T01:59:39.037Z,984.05
2022-10-24T02:04:43.215Z,984.14
2022-10-24T02:09:47.494Z,983.98
2022-10-24T02:14:51.484Z,984.08
2022-10-24T02:19:55.700Z,983.90
2022-10-24T02:24:59.859Z,983.80
2022-10-24T02:30:03.974Z,983.75
2022-10-24T02:35:08.143Z,983.84
2022-10-24T02:40:12.289Z,983.81
2022-10-24T02:45:16.487Z,983.87
2022-10-24T02:50:20.603Z,983.89
2022-10-24T02:55:24.769Z,983.85
2022-10-24T03:00:28.991Z,983.77
2022-10-24T03:05:33.112Z,983.85
2022-10-24T03:10:37.258Z,983.89
2022-10-24T03:15:41.490Z,983.89
2022-10-24T03:20:45.567Z,983.91
2022-10-24T03:25:49.753Z,983.90
2022-10-24T03:30:53.882Z,983.94
2022-10-24T03:35:58.061Z,983.96
2022-10-24T03:41:00.335Z,983.88
2022-10-24T03:46:04.520Z,983.86
2022-10-24T03:51:08.651Z,983.86
2022-10-24T03:56:12.772Z,984.03
2022-10-24T04:01:17.043Z,983.93
2022-10-24T04:06:21.136Z,984.02
2022-10-24T04:11:25.278Z,984.04
2022-10-24T04:16:29.448Z,984.07
2022-10-24T04:21:33.603Z,984.05
2022-10-24T04:26:37.770Z,984.22
2022-10-24T04:31:41.954Z,984.13
2022-10-24T04:36:46.071Z,984.20
2022-10-24T04:41:50.249Z,984.12
2022-10-24T04:46:54.434Z,984.00
2022-10-24T04:51:58.597Z,984.09
2022-10-24T04:57:02.712Z,984.15
2022-10-24T05:02:06.875Z,984.20
2022-10-24T05:07:11.033Z,984.15
2022-10-24T05:12:15.276Z,984.16
2022-10-24T05:17:19.359Z,984.24
2022-10-24T05:22:23.497Z,984.28
2022-10-24T05:27:25.790Z,984.27
2022-10-24T05:32:29.989Z,984.30
2022-10-24T05:37:32.236Z,984.33
2022-10-24T05:42:36.392Z,984.49
2022-10-24T05:47:40.547Z,984.32
2022-10-24T05:52:47.147Z,984.34
2022-10-24T05:57:48.976Z,984.39
2022-10-24T06:02:53.008Z,984.51
2022-10-24T06:07:57.184Z,984.56
2022-10-24T06:13:01.327Z,984.56
2022-10-24T06:18:05.517Z,984.57
2022-10-24T06:23:09.660Z,984.70
2022-10-24T06:28:13.845Z,984.74
2022-10-24T06:33:18.004Z,984.67
2022-10-24T06:38:22.151Z,984.80
2022-10-24T06:43:26.272Z,984.74
2022-10-24T06:48:30.465Z,984.81
2022-10-24T06:53:34.585Z,984.87
2022-10-24T06:58:38.745Z,984.90
2022-10-24T07:03:42.949Z,985.01
2022-10-24T07:08:47.187Z,985.26
2022-10-24T07:13:52.477Z,985.24
2022-10-24T07:18:55.436Z,985.22
2022-10-24T07:34:04.120Z,985.11
2022-10-24T07:39:08.253Z,985.17
2022-10-24T07:44:10.561Z,985.30
2022-10-24T07:49:14.727Z,985.26
2022-10-24T07:54:18.990Z,985.23
2022-10-24T07:59:40.875Z,985.25
2022-10-24T08:04:27.214Z,985.23
2022-10-24T08:14:35.609Z,985.25
2022-10-24T08:19:41.197Z,985.35
2022-10-24T08:24:43.819Z,985.31
2022-10-24T08:29:48.018Z,985.26
2022-10-24T08:34:52.152Z,985.29
2022-10-24T08:39:54.426Z,985.24
2022-10-24T08:44:58.597Z,985.17
2022-10-24T08:50:02.835Z,985.17
2022-10-24T08:55:07.282Z,985.18
2022-10-24T09:00:11.104Z,985.23
2022-10-24T09:05:15.209Z,985.25
2022-10-24T09:10:19.411Z,985.27
2022-10-24T09:15:23.533Z,985.31
2022-10-24T09:20:27.727Z,985.28
2022-10-24T09:25:31.846Z,985.38
2022-10-24T09:30:36.018Z,985.57
2022-10-24T09:35:40.169Z,985.51
2022-10-24T09:40:44.351Z,985.45
2022-10-24T09:45:48.471Z,985.66
2022-10-24T09:50:52.664Z,985.64
2022-10-24T09:55:56.819Z,985.66
2022-10-24T10:01:01.108Z,985.77
2022-10-24T10:06:05.106Z,985.86
2022-10-24T10:11:09.291Z,985.82
2022-10-24T10:16:15.916Z,985.86
2022-10-24T10:21:17.621Z,985.83
2022-10-24T10:26:19.899Z,985.81
2022-10-24T10:31:24.030Z,985.92
2022-10-24T10:36:26.305Z,985.95
2022-10-24T10:41:30.453Z,985.95
2022-10-24T10:46:34.644Z,986.06
2022-10-24T10:51:38.781Z,986.09
2022-10-24T10:56:42.942Z,986.09
2022-10-24T11:01:47.323Z,986.14
2022-10-24T11:06:51.326Z,986.27
2022-10-24T11:11:55.478Z,986.27
2022-10-24T11:16:59.572Z,986.31
2022-10-24T11:22:03.794Z,986.34
2022-10-24T11:27:07.920Z,986.36
2022-10-24T11:32:12.064Z,986.44
2022-10-24T11:37:16.189Z,986.41
2022-10-24T11:42:20.486Z,986.42
2022-10-24T11:47:24.530Z,986.47
2022-10-24T11:52:28.699Z,986.48
2022-10-24T11:57:32.859Z,986.49
2022-10-24T12:02:37.059Z,986.55
2022-10-24T12:07:41.193Z,986.64
2022-10-24T12:12:45.347Z,986.64
2022-10-24T12:17:49.487Z,986.62
2022-10-24T12:22:51.805Z,986.63
2022-10-24T12:27:55.932Z,986.58
2022-10-24T12:33:00.318Z,986.59
2022-10-24T12:38:04.205Z,986.73
2022-10-24T12:43:08.443Z,986.64
2022-10-24T12:48:12.570Z,986.72
2022-10-24T12:53:16.709Z,986.67
2022-10-24T12:58:20.855Z,986.50
2022-10-24T13:03:25.027Z,986.45
2022-10-24T13:13:33.337Z,986.39
2022-10-24T13:18:37.509Z,986.40
2022-10-24T13:23:41.678Z,986.23
2022-10-24T13:28:45.851Z,986.15
2022-10-24T13:33:49.999Z,986.17
2022-10-24T13:38:54.170Z,986.20
2022-10-24T13:43:58.324Z,986.16
2022-10-24T13:49:02.494Z,986.03
2022-10-24T13:54:06.609Z,986.08
2022-10-24T13:59:10.801Z,986.12
2022-10-24T14:04:14.926Z,986.06
2022-10-24T14:09:19.123Z,986.05
2022-10-24T14:14:21.383Z,985.95
2022-10-24T14:19:28.489Z,986.12
2022-10-24T14:24:27.813Z,986.22
2022-10-24T14:29:31.972Z,986.25
2022-10-24T14:34:36.496Z,986.41
2022-10-24T14:39:40.326Z,986.30
2022-10-24T14:44:44.439Z,986.34
2022-10-24T14:49:48.603Z,986.43
2022-10-24T14:54:52.720Z,986.58
2022-10-24T14:59:56.923Z,986.61
2022-10-24T15:05:01.048Z,986.57
2022-10-24T15:10:07.908Z,986.45
2022-10-24T15:15:09.389Z,986.61
2022-10-24T15:20:13.554Z,986.52
2022-10-24T15:25:17.727Z,986.54
2022-10-24T15:30:21.870Z,986.56
2022-10-24T15:35:26.036Z,986.56
2022-10-24T15:40:30.190Z,986.61
2022-10-24T15:45:34.361Z,986.59
2022-10-24T15:50:38.517Z,986.64
2022-10-24T15:55:42.687Z,986.49
2022-10-24T16:00:46.870Z,986.70
2022-10-24T16:05:50.944Z,986.90
2022-10-24T16:10:53.273Z,987.24
2022-10-24T16:15:57.398Z,987.12
2022-10-24T16:20:59.797Z,987.09
2022-10-24T16:26:03.860Z,987.24
2022-10-24T16:31:08.001Z,987.35
2022-10-24T16:36:12.142Z,987.43
2022-10-24T16:41:16.287Z,987.61
2022-10-24T16:46:20.469Z,987.65
2022-10-24T16:51:24.638Z,987.66
2022-10-24T16:56:28.775Z,987.69
2022-10-24T17:01:33.097Z,987.68
2022-10-24T17:06:37.140Z,987.56
2022-10-24T17:11:46.001Z,987.38
2022-10-24T17:16:45.431Z,987.32
2022-10-24T17:21:49.569Z,987.19
2022-10-24T17:26:53.747Z,987.15
2022-10-24T17:31:57.910Z,987.19
2022-10-24T17:37:02.064Z,986.96
2022-10-24T17:42:06.259Z,986.89
2022-10-24T17:47:10.402Z,987.06
2022-10-24T17:52:14.616Z,987.28
2022-10-24T17:57:18.700Z,987.64
2022-10-24T18:02:22.921Z,987.73
2022-10-24T18:07:25.141Z,987.91
2022-10-24T18:12:29.317Z,988.08
2022-10-24T18:17:33.453Z,988.37
2022-10-24T18:22:35.742Z,988.29
2022-10-24T18:27:39.940Z,988.34
2022-10-24T18:32:44.576Z,988.49
2022-10-24T18:37:48.264Z,988.55
2022-10-24T18:42:52.401Z,988.59
2022-10-24T18:47:56.565Z,988.71
2022-10-24T18:53:00.745Z,988.76
2022-10-24T18:58:04.851Z,988.70
2022-10-24T19:03:09.009Z,988.69
2022-10-24T19:08:13.178Z,988.75
2022-10-24T19:13:17.388Z,988.51
2022-10-24T19:18:21.493Z,988.55
2022-10-24T19:23:25.685Z,988.38
2022-10-24T19:28:29.854Z,988.47
2022-10-24T19:33:33.999Z,988.27
2022-10-24T19:38:38.154Z,988.23
2022-10-24T19:43:42.306Z,988.15
2022-10-24T19:48:46.484Z,988.22
2022-10-24T19:53:50.641Z,988.23
2022-10-24T19:58:54.800Z,988.24
2022-10-24T20:03:58.947Z,988.21
2022-10-24T20:09:01.208Z,988.22
2022-10-24T20:14:05.373Z,988.12
2022-10-24T20:19:09.541Z,988.11
2022-10-24T20:24:13.690Z,988.04
2022-10-24T20:29:17.892Z,987.82
2022-10-24T20:34:22.012Z,987.89
2022-10-24T20:39:26.171Z,987.98
2022-10-24T20:44:30.330Z,987.94
2022-10-24T20:49:34.500Z,987.96
2022-10-24T20:54:38.668Z,988.01
2022-10-24T20:59:42.983Z,988.07
2022-10-24T21:04:46.982Z,988.12
2022-10-24T21:09:51.113Z,988.29
2022-10-24T21:14:55.712Z,988.14
2022-10-24T21:19:59.436Z,988.24
2022-10-24T21:25:03.679Z,988.42
2022-10-24T21:30:10.978Z,988.47
2022-10-24T21:35:11.968Z,988.39
2022-10-24T21:40:16.090Z,988.47
2022-10-24T21:45:20.243Z,988.41
2022-10-24T21:50:24.418Z,988.44
2022-10-24T21:55:26.693Z,988.57
2022-10-24T22:00:30.893Z,988.43
2022-10-24T22:05:33.133Z,988.47
2022-10-24T22:10:37.277Z,988.46
2022-10-24T22:15:39.596Z,988.54
2022-10-24T22:20:43.708Z,988.54
2022-10-24T22:25:47.872Z,988.61
2022-10-24T22:30:52.063Z,988.58
2022-10-24T22:35:56.237Z,988.67
2022-10-24T22:41:00.355Z,988.73
2022-10-24T22:46:04.527Z,988.79
2022-10-24T22:51:08.706Z,988.61
2022-10-24T22:56:12.843Z,988.70
2022-10-24T23:01:17.223Z,988.83
2022-10-24T23:06:21.310Z,988.93
2022-10-24T23:11:25.291Z,988.96
2022-10-24T23:16:29.525Z,988.88
2022-10-24T23:21:33.667Z,988.95
2022-10-24T23:26:37.820Z,989.10
2022-10-24T23:31:41.987Z,989.19
2022-10-24T23:36:46.114Z,989.29
2022-10-24T23:41:50.301Z,989.37
2022-10-24T23:46:54.455Z,989.40
2022-10-24T23:51:58.582Z,989.41
2022-10-24T23:57:02.761Z,989.44
